AerodromSadržaj METAR izveštaja
LYBEMETAR LYBE 172100Z 15004KT CAVOK 20/13 Q1017 NOSIG=
LYBTMETAR LYBT 172100Z 00000KT CAVOK 16/13 Q1016 NOSIG=
LYKVMETAR LYKV 172100Z VRB01KT CAVOK 15/15 Q1017 NOSIG=
LYNIMETAR LYNI 172100Z VRB02KT CAVOK 18/13 Q1017 NOSIG=
LYVRMETAR LYVR 172100Z 00000KT CAVOK 17/13 Q1016 NOSIG=
LYUZMETAR LYUZ 172100Z AUTO 00000KT CAVOK 11/10 Q1020=
LYPGMETAR LYPG 172100Z 34006KT CAVOK 23/15 Q1015 NOSIG=
LYTVMETAR LYTV 172100Z VRB02KT CAVOK 19/16 Q1015=

Podaci učitani u: 2019-08-17 21:06:02 UTC

METAR, TAF, AIRMET, GAMET, SIGMET

Važna napomena: MET infоrmаciје nа оvim web strаnicаmа imајu infоrmаtivni kаrаktеr, nаmenjene su isključivo vаzduhоplоvnim kоrisnicima, nе smејu sе kоristiti zа bilо kоје kоmеrciјаlnе svrhе, i nе zаmеnjuјu dоkumеntаciјu zа lеt.